createdAt,value
2018-01-07T00:00:38.802Z,980.5
2018-01-07T00:01:41.401Z,980.6
2018-01-07T00:02:45.015Z,980.6
2018-01-07T00:03:47.998Z,980.5
2018-01-07T00:04:50.607Z,980.5
2018-01-07T00:05:53.223Z,980.5
2018-01-07T00:06:56.325Z,980.6
2018-01-07T00:07:59.465Z,980.6
2018-01-07T00:09:02.091Z,980.4
2018-01-07T00:10:04.728Z,980.6
2018-01-07T00:11:08.241Z,980.4
2018-01-07T00:12:11.055Z,980.7
2018-01-07T00:13:13.623Z,980.6
2018-01-07T00:14:16.341Z,980.7
2018-01-07T00:15:20.391Z,980.8
2018-01-07T00:16:23.459Z,980.8
2018-01-07T00:17:26.319Z,980.8
2018-01-07T00:18:28.976Z,980.8
2018-01-07T00:19:31.584Z,980.7
2018-01-07T00:20:34.149Z,980.3
2018-01-07T00:21:36.646Z,980.8
2018-01-07T00:22:44.786Z,980.7
2018-01-07T00:23:47.529Z,980.9
2018-01-07T00:24:50.167Z,980.9
2018-01-07T00:25:53.129Z,980.8
2018-01-07T00:26:55.674Z,980.8
2018-01-07T00:27:58.433Z,980.9
2018-01-07T00:29:10.658Z,980.9
2018-01-07T00:30:13.630Z,980.9
2018-01-07T00:31:16.336Z,980.9
2018-01-07T00:32:21.878Z,980.9
2018-01-07T00:33:24.435Z,980.9
2018-01-07T00:34:26.981Z,980.9
2018-01-07T00:35:29.594Z,980.9
2018-01-07T00:36:32.141Z,980.9
2018-01-07T00:37:35.179Z,981
2018-01-07T00:38:37.728Z,981.1
2018-01-07T00:39:40.295Z,981.1
2018-01-07T00:40:43.332Z,981.1
2018-01-07T01:23:10.960Z,981.8
2018-01-07T01:24:13.599Z,981.9
2018-01-07T01:25:16.864Z,981.9
2018-01-07T02:27:14.434Z,982.9
2018-01-07T02:28:16.909Z,982.9
2018-01-07T02:29:19.592Z,982.9
2018-01-07T02:30:22.310Z,982.9
2018-01-07T02:31:25.306Z,982.9
2018-01-07T02:32:27.927Z,983.1
2018-01-07T02:33:30.685Z,983
2018-01-07T02:58:45.544Z,983.3
2018-01-07T02:59:48.087Z,983.4
2018-01-07T03:12:56.838Z,983.5
2018-01-07T03:13:59.374Z,983.5
2018-01-07T03:15:01.967Z,983.4
2018-01-07T03:16:04.535Z,983.5
2018-01-07T03:17:07.247Z,983.5
2018-01-07T03:18:10.308Z,983.7
2018-01-07T03:19:12.848Z,983.6
2018-01-07T03:20:15.487Z,983.6
2018-01-07T03:21:26.445Z,983.7
2018-01-07T03:22:29.037Z,983.6
2018-01-07T04:18:10.672Z,984.4
2018-01-07T04:19:13.642Z,984.4
2018-01-07T04:20:16.147Z,984.4
2018-01-07T04:21:21.608Z,984.3
2018-01-07T04:22:25.018Z,984.3
2018-01-07T04:23:27.554Z,984.3
2018-01-07T04:53:36.209Z,984.6
2018-01-07T04:54:38.899Z,984.6
2018-01-07T04:55:41.840Z,984.6
2018-01-07T04:56:44.355Z,984.5
2018-01-07T05:24:27.486Z,985.1
2018-01-07T05:25:30.068Z,985
2018-01-07T05:26:33.245Z,985.1
2018-01-07T05:27:35.816Z,985.2
2018-01-07T05:28:38.259Z,985.2
2018-01-07T05:29:40.734Z,985.2
2018-01-07T05:30:43.322Z,985.2
2018-01-07T05:31:45.878Z,985.2
2018-01-07T05:32:48.676Z,985.3
2018-01-07T05:33:51.457Z,985.3
2018-01-07T05:34:54.735Z,985.2
2018-01-07T05:35:57.640Z,985.3
2018-01-07T05:37:01.075Z,985.4
2018-01-07T05:38:03.620Z,985.4
2018-01-07T05:39:06.969Z,984.9
2018-01-07T05:40:10.302Z,985.4
2018-01-07T05:41:12.983Z,985.5
2018-01-07T05:42:20.754Z,985.5
2018-01-07T05:43:23.406Z,985.2
2018-01-07T05:44:25.980Z,985.5
2018-01-07T05:45:28.471Z,985.6
2018-01-07T05:46:31.012Z,985.6
2018-01-07T05:47:33.786Z,985.6
2018-01-07T05:48:36.376Z,985.7
2018-01-07T05:49:39.127Z,985.6
2018-01-07T05:50:41.701Z,985.7
2018-01-07T05:51:44.384Z,985.6
2018-01-07T05:52:47.056Z,985.6
2018-01-07T05:53:49.919Z,985.7
2018-01-07T05:54:52.530Z,985.7
2018-01-07T05:55:55.098Z,985.8
2018-01-07T05:56:57.746Z,985.4
2018-01-07T05:58:00.399Z,985.2
2018-01-07T05:59:03.128Z,985.7
2018-01-07T06:00:05.880Z,985.8
2018-01-07T06:01:08.619Z,985.8
2018-01-07T06:02:11.791Z,985.8
2018-01-07T06:03:14.562Z,985.8
2018-01-07T06:04:17.081Z,985.6
2018-01-07T06:05:19.614Z,985.9
2018-01-07T06:06:22.080Z,985.8
2018-01-07T06:07:24.566Z,985.9
2018-01-07T06:08:27.065Z,985.8
2018-01-07T06:09:29.579Z,986
2018-01-07T06:10:32.222Z,985.9
2018-01-07T06:11:34.847Z,986
2018-01-07T06:12:37.549Z,986
2018-01-07T06:13:40.153Z,986.1
2018-01-07T06:14:43.285Z,986.1
2018-01-07T06:15:45.789Z,986.2
2018-01-07T06:16:48.397Z,986.1
2018-01-07T06:17:50.910Z,986.1
2018-01-07T06:18:53.499Z,986.1
2018-01-07T06:19:55.967Z,986.1
2018-01-07T06:20:58.758Z,986.1
2018-01-07T06:22:01.374Z,986.1
2018-01-07T06:23:03.941Z,986.2
2018-01-07T06:24:06.592Z,986.2
2018-01-07T06:25:09.266Z,986.3
2018-01-07T06:26:11.999Z,986.3
2018-01-07T06:27:14.653Z,986.4
2018-01-07T06:28:17.184Z,986.3
2018-01-07T06:29:19.748Z,986.4
2018-01-07T06:30:22.304Z,986.5
2018-01-07T06:31:26.020Z,986.4
2018-01-07T06:32:28.455Z,986.5
2018-01-07T06:33:31.210Z,986.5
2018-01-07T06:34:33.722Z,986.5
2018-01-07T06:35:36.274Z,986.5
2018-01-07T06:36:39.028Z,986.5
2018-01-07T06:37:41.605Z,986.6
2018-01-07T06:38:44.040Z,986.5
2018-01-07T06:39:46.564Z,986.2
2018-01-07T06:40:49.240Z,986.5
2018-01-07T06:41:51.746Z,986.6
2018-01-07T06:42:54.266Z,986.6
2018-01-07T06:43:57.041Z,986.7
2018-01-07T06:44:59.736Z,986.7
2018-01-07T07:21:27.303Z,986.8
2018-01-07T07:22:29.913Z,987.2
2018-01-07T07:23:32.428Z,987.3
2018-01-07T07:24:35.114Z,987.1
2018-01-07T07:25:37.623Z,987.3
2018-01-07T07:26:43.224Z,987.3
2018-01-07T07:27:45.822Z,987.3
2018-01-07T07:28:48.358Z,987.3
2018-01-07T07:29:51.708Z,987.4
2018-01-07T07:52:15.921Z,987.7
2018-01-07T07:53:18.491Z,987.8
2018-01-07T07:54:22.830Z,987.7
2018-01-07T07:55:25.485Z,987.8
2018-01-07T07:56:28.448Z,987.8
2018-01-07T07:57:31.105Z,987.8
2018-01-07T07:58:33.794Z,987.8
2018-01-07T08:51:23.383Z,988.6
2018-01-07T08:52:26.055Z,988.8
2018-01-07T08:53:28.801Z,988.8
2018-01-07T08:54:31.716Z,988.8
2018-01-07T08:55:34.470Z,988.8
2018-01-07T08:56:37.150Z,988.8
2018-01-07T08:57:40.015Z,988.8
2018-01-07T08:58:45.969Z,988.8
2018-01-07T09:00:02.740Z,988.9
2018-01-07T09:01:14.995Z,988.9
2018-01-07T09:02:24.363Z,988.9
2018-01-07T09:03:27.114Z,988.9
2018-01-07T09:04:30.034Z,989
2018-01-07T09:05:34.123Z,989
2018-01-07T09:06:36.933Z,989.1
2018-01-07T09:07:40.061Z,989.1
2018-01-07T09:08:46.370Z,989
2018-01-07T09:09:50.622Z,988.9
2018-01-07T09:10:58.304Z,988.7
2018-01-07T09:12:01.303Z,989
2018-01-07T09:13:06.604Z,989.1
2018-01-07T09:14:12.453Z,989.1
2018-01-07T09:15:17.299Z,989
2018-01-07T09:16:24.098Z,989.1
2018-01-07T09:17:30.215Z,989.1
2018-01-07T09:18:32.833Z,989.1
2018-01-07T09:19:35.496Z,989.1
2018-01-07T09:20:38.125Z,989.1
2018-01-07T09:21:40.927Z,989.1
2018-01-07T09:22:43.541Z,989.2
2018-01-07T09:23:46.244Z,989.2
2018-01-07T09:24:48.905Z,989.1
2018-01-07T09:25:51.811Z,989.3
2018-01-07T09:26:54.536Z,989.2
2018-01-07T09:27:57.153Z,989.2
2018-01-07T09:29:05.758Z,989.2
2018-01-07T09:30:08.460Z,989.2
2018-01-07T09:31:11.173Z,989.2
2018-01-07T09:32:13.858Z,989.3
2018-01-07T09:33:16.692Z,989.3
2018-01-07T09:34:19.416Z,989.1
2018-01-07T09:35:22.206Z,989.3
2018-01-07T09:36:24.877Z,989.4
2018-01-07T09:37:27.567Z,989.4
2018-01-07T09:38:32.807Z,989.3
2018-01-07T09:39:37.717Z,989.4
2018-01-07T09:40:40.523Z,989.3
2018-01-07T09:41:43.277Z,989.1
2018-01-07T09:42:51.350Z,989.2
2018-01-07T09:43:54.164Z,989.2
2018-01-07T09:44:57.068Z,989.3
2018-01-07T09:45:59.750Z,989.3
2018-01-07T09:47:02.475Z,989.2
2018-01-07T09:48:05.209Z,989.3
2018-01-07T09:49:07.916Z,989.3
2018-01-07T09:50:11.501Z,989.3
2018-01-07T09:51:14.212Z,989.2
2018-01-07T09:52:16.876Z,989.2
2018-01-07T09:53:19.447Z,989.3
2018-01-07T09:54:22.140Z,989.3
2018-01-07T09:55:24.809Z,989.3
2018-01-07T09:56:28.357Z,989.3
2018-01-07T09:57:31.075Z,989.3
2018-01-07T09:58:33.706Z,989.3
2018-01-07T09:59:36.358Z,989.3
2018-01-07T10:00:39.013Z,989.4
2018-01-07T10:01:47.759Z,989.4
2018-01-07T10:02:50.528Z,989.4
2018-01-07T10:03:53.124Z,989.5
2018-01-07T10:04:55.791Z,989.5
2018-01-07T10:05:58.465Z,989.4
2018-01-07T10:07:01.706Z,989.2
2018-01-07T10:08:04.350Z,989.5
2018-01-07T10:09:07.107Z,989.5
2018-01-07T10:10:10.166Z,989.5
2018-01-07T10:11:12.835Z,989.6
2018-01-07T10:12:15.617Z,989.6
2018-01-07T10:13:18.277Z,989.5
2018-01-07T10:14:21.087Z,989.5
2018-01-07T10:15:24.653Z,989.6
2018-01-07T10:16:27.253Z,989.6
2018-01-07T10:17:30.110Z,989.5
2018-01-07T10:18:32.900Z,989.5
2018-01-07T10:19:35.765Z,989.6
2018-01-07T10:20:38.436Z,989.6
2018-01-07T10:21:41.370Z,989.6
2018-01-07T10:22:44.052Z,989.4
2018-01-07T10:23:46.979Z,989.6
2018-01-07T10:24:49.845Z,989.7
2018-01-07T10:25:52.599Z,989.6
2018-01-07T10:26:55.585Z,989.7
2018-01-07T10:27:58.715Z,989.6
2018-01-07T10:29:02.105Z,989.7
2018-01-07T10:30:05.239Z,989.6
2018-01-07T10:31:08.414Z,989.6
2018-01-07T10:32:11.449Z,989.4
2018-01-07T10:33:14.416Z,989.6
2018-01-07T10:34:17.239Z,989.6
2018-01-07T10:35:20.411Z,989.5
2018-01-07T10:36:23.267Z,989.5
2018-01-07T10:37:26.060Z,989.6
2018-01-07T10:38:28.895Z,989.6
2018-01-07T10:39:31.787Z,989.2
2018-01-07T10:40:34.543Z,989.6
2018-01-07T10:41:37.920Z,989.5
2018-01-07T10:42:40.653Z,989.3
2018-01-07T10:43:43.564Z,989.4
2018-01-07T10:44:46.339Z,989.4
2018-01-07T10:45:49.109Z,989.5
2018-01-07T10:46:52.079Z,989.4
2018-01-07T10:47:54.914Z,989.4
2018-01-07T10:48:57.850Z,989.4
2018-01-07T10:50:00.664Z,989.5
2018-01-07T10:51:03.512Z,989.5
2018-01-07T10:52:06.519Z,989.5
2018-01-07T10:53:09.270Z,989.6
2018-01-07T10:54:12.022Z,989.6
2018-01-07T10:55:14.878Z,989.2
2018-01-07T10:56:28.829Z,989.6
2018-01-07T10:57:31.815Z,989.5
2018-01-07T10:58:34.419Z,989.6
2018-01-07T10:59:37.151Z,989.5
2018-01-07T11:00:39.827Z,989.6
2018-01-07T11:01:42.557Z,989.6
2018-01-07T11:02:45.180Z,989.6
2018-01-07T11:03:51.728Z,989.6
2018-01-07T11:04:54.384Z,989.4
2018-01-07T11:05:57.047Z,989.6
2018-01-07T11:06:59.878Z,989.6
2018-01-07T11:08:02.564Z,989.6
2018-01-07T11:09:05.274Z,989.6
2018-01-07T11:10:08.153Z,989.6
2018-01-07T11:11:10.874Z,989.6
2018-01-07T11:12:20.125Z,989.6
2018-01-07T11:13:22.774Z,989.6
2018-01-07T11:14:25.501Z,989.6
2018-01-07T11:15:28.252Z,989.6
2018-01-07T11:16:31.416Z,989.4
2018-01-07T11:17:34.174Z,989.6
2018-01-07T11:18:36.755Z,989.7
2018-01-07T11:19:39.435Z,989.6
2018-01-07T11:20:42.429Z,989.4
2018-01-07T11:21:45.173Z,989.6
2018-01-07T11:22:48.142Z,989.6
2018-01-07T11:23:50.825Z,989.6
2018-01-07T11:24:53.905Z,989.6
2018-01-07T11:25:56.549Z,989.6
2018-01-07T11:26:59.251Z,989.7
2018-01-07T11:28:02.802Z,989.6
2018-01-07T11:29:05.557Z,989.6
2018-01-07T11:30:08.397Z,989.6
2018-01-07T11:31:11.230Z,989.7
2018-01-07T11:32:14.047Z,989.7
2018-01-07T11:33:16.856Z,989.6
2018-01-07T11:34:19.442Z,989.8
2018-01-07T11:35:22.229Z,989.8
2018-01-07T11:36:28.165Z,989.8
2018-01-07T11:37:30.923Z,989.7
2018-01-07T11:38:33.656Z,989.9
2018-01-07T11:39:36.302Z,989.9
2018-01-07T11:40:39.036Z,989.9
2018-01-07T11:41:42.009Z,989.9
2018-01-07T11:42:51.168Z,990
2018-01-07T11:43:53.805Z,989.8
2018-01-07T11:44:56.495Z,989.8
2018-01-07T11:45:59.098Z,989.8
2018-01-07T11:47:02.148Z,989.7
2018-01-07T11:48:04.836Z,989.7
2018-01-07T11:49:07.568Z,989.7
2018-01-07T11:50:10.395Z,989.7
2018-01-07T11:51:13.032Z,989.7
2018-01-07T11:52:15.670Z,989.8
2018-01-07T11:53:18.998Z,989.7
2018-01-07T11:54:21.704Z,989.7
2018-01-07T11:55:24.467Z,989.7
2018-01-07T11:56:30.554Z,989.8
2018-01-07T11:57:33.403Z,989.8
2018-01-07T11:58:36.072Z,989.7
2018-01-07T11:59:38.733Z,989.8
2018-01-07T12:00:41.449Z,989.8
2018-01-07T12:01:44.190Z,989.8
2018-01-07T12:02:47.004Z,989.8
2018-01-07T12:03:49.890Z,989.8
2018-01-07T12:04:52.614Z,989.8
2018-01-07T12:05:55.452Z,989.8
2018-01-07T12:07:02.567Z,989.8
2018-01-07T12:08:05.377Z,989.8
2018-01-07T12:09:08.103Z,989.8
2018-01-07T12:10:11.071Z,989.8
2018-01-07T12:11:13.888Z,989.8
2018-01-07T12:12:16.719Z,989.8
2018-01-07T12:13:19.378Z,989.9
2018-01-07T12:14:22.209Z,989.9
2018-01-07T12:15:24.926Z,989.9
2018-01-07T12:16:27.769Z,989.9
2018-01-07T12:17:30.796Z,989.8
2018-01-07T12:18:33.657Z,989.7
2018-01-07T12:19:36.493Z,989.9
2018-01-07T12:20:39.324Z,989.9
2018-01-07T12:21:42.182Z,989.9
2018-01-07T12:22:45.128Z,989.9
2018-01-07T12:23:48.061Z,989.8
2018-01-07T12:24:51.055Z,989.9
2018-01-07T12:25:53.880Z,989.9
2018-01-07T12:26:56.537Z,989.9
2018-01-07T12:27:59.569Z,989.8
2018-01-07T12:29:02.721Z,989.9
2018-01-07T12:30:06.225Z,989.7
2018-01-07T12:31:10.029Z,989.6
2018-01-07T12:32:12.772Z,989.7
2018-01-07T12:33:15.471Z,989.8
2018-01-07T12:34:18.272Z,989.6
2018-01-07T12:35:22.339Z,989.8
2018-01-07T12:36:25.285Z,989.8
2018-01-07T12:37:28.180Z,989.8
2018-01-07T12:38:31.256Z,989.8
2018-01-07T12:39:36.744Z,989.6
2018-01-07T12:40:39.471Z,989.8
2018-01-07T12:41:42.441Z,989.8
2018-01-07T12:42:45.104Z,989.8
2018-01-07T12:43:47.823Z,989.8
2018-01-07T12:44:50.596Z,989.8
2018-01-07T12:45:53.383Z,989.8
2018-01-07T12:46:56.099Z,989.9
2018-01-07T12:47:59.079Z,989.9
2018-01-07T12:49:02.109Z,989.9
2018-01-07T12:50:04.697Z,989.8
2018-01-07T12:51:07.363Z,989.6
2018-01-07T12:52:09.930Z,989.9
2018-01-07T12:53:12.739Z,989.9
2018-01-07T12:54:15.403Z,989.8
2018-01-07T12:55:18.194Z,989.8
2018-01-07T12:56:21.165Z,989.8
2018-01-07T12:57:24.000Z,989.8
2018-01-07T12:58:26.803Z,989.8
2018-01-07T12:59:29.546Z,989.8
2018-01-07T13:00:32.279Z,989.8
2018-01-07T13:01:35.063Z,989.8
2018-01-07T13:02:38.114Z,989.7
2018-01-07T13:03:40.794Z,989.7
2018-01-07T13:04:43.419Z,989.7
2018-01-07T13:05:46.441Z,989.8
2018-01-07T13:06:49.085Z,989.7
2018-01-07T13:07:52.132Z,989.7
2018-01-07T13:08:54.892Z,989.7
2018-01-07T13:09:57.463Z,989.7
2018-01-07T13:11:00.252Z,989.7
2018-01-07T13:12:02.988Z,989.7
2018-01-07T13:13:05.900Z,989.7
2018-01-07T13:14:08.672Z,989.7
2018-01-07T13:15:11.722Z,989.8
2018-01-07T13:16:14.320Z,989.7
2018-01-07T13:17:17.131Z,989.7
2018-01-07T13:18:19.742Z,989.7
2018-01-07T13:19:22.712Z,989.8
2018-01-07T13:20:25.281Z,989.7
2018-01-07T13:21:28.017Z,989.7
2018-01-07T13:22:31.208Z,989.7
2018-01-07T13:23:37.011Z,989.7
2018-01-07T13:24:39.667Z,989.7
2018-01-07T13:25:42.327Z,989.7
2018-01-07T13:26:45.093Z,989.5
2018-01-07T13:27:47.711Z,989.7
2018-01-07T13:28:50.464Z,989.7
2018-01-07T13:29:53.189Z,989.7
2018-01-07T13:30:55.958Z,989.7
2018-01-07T13:31:58.841Z,989.7
2018-01-07T13:33:01.601Z,989.7
2018-01-07T13:34:06.510Z,989.7
2018-01-07T13:35:09.270Z,989.7
2018-01-07T13:36:12.476Z,989.6
2018-01-07T13:37:15.255Z,989.7
2018-01-07T13:38:18.690Z,989.7
2018-01-07T13:39:21.632Z,989.7
2018-01-07T13:40:24.334Z,989.7
2018-01-07T13:41:27.035Z,989.7
2018-01-07T13:42:29.664Z,989.7
2018-01-07T13:43:32.517Z,989.7
2018-01-07T13:44:35.353Z,989.7
2018-01-07T13:45:37.909Z,989.7
2018-01-07T13:46:47.711Z,989.7
2018-01-07T13:47:50.329Z,989.7
2018-01-07T13:48:53.157Z,989.7
2018-01-07T13:49:56.141Z,989.8
2018-01-07T13:50:58.884Z,989.8
2018-01-07T13:52:01.817Z,989.8
2018-01-07T13:53:04.775Z,989.8
2018-01-07T13:54:07.555Z,989.6
2018-01-07T13:55:10.603Z,989.5
2018-01-07T13:56:13.342Z,989.8
2018-01-07T13:57:16.218Z,989.7
2018-01-07T13:58:18.962Z,989.8
2018-01-07T13:59:21.815Z,989.8
2018-01-07T14:00:24.617Z,989.6
2018-01-07T14:01:27.223Z,989.9
2018-01-07T14:02:29.986Z,989.9
2018-01-07T14:03:35.345Z,989.9
2018-01-07T14:04:38.348Z,989.8
2018-01-07T14:05:41.180Z,989.9
2018-01-07T14:06:43.773Z,989.9
2018-01-07T14:07:46.490Z,989.9
2018-01-07T14:08:49.131Z,989.9
2018-01-07T14:09:51.953Z,989.9
2018-01-07T14:10:54.778Z,989.9
2018-01-07T14:12:00.072Z,989.9
2018-01-07T14:13:03.592Z,990
2018-01-07T14:14:09.574Z,989.9
2018-01-07T14:15:12.342Z,989.9
2018-01-07T14:16:15.088Z,989.9
2018-01-07T14:17:18.889Z,990
2018-01-07T14:18:21.620Z,989.7
2018-01-07T14:19:24.244Z,989.9
2018-01-07T14:20:26.817Z,989.9
2018-01-07T14:21:29.676Z,989.9
2018-01-07T14:22:34.946Z,989.9
2018-01-07T14:23:37.899Z,989.9
2018-01-07T14:24:40.501Z,989.9
2018-01-07T14:25:43.187Z,990
2018-01-07T14:26:45.802Z,990
2018-01-07T14:27:48.516Z,990
2018-01-07T14:28:51.349Z,990
2018-01-07T14:29:53.925Z,989.9
2018-01-07T14:30:56.601Z,990
2018-01-07T14:31:59.455Z,990
2018-01-07T14:33:02.322Z,989.9
2018-01-07T14:34:05.009Z,990
2018-01-07T14:35:07.897Z,990
2018-01-07T14:36:10.657Z,990
2018-01-07T14:37:13.269Z,990
2018-01-07T14:38:15.856Z,990
2018-01-07T14:39:18.447Z,989.9
2018-01-07T14:40:21.040Z,990
2018-01-07T14:41:23.803Z,989.8
2018-01-07T14:42:26.390Z,990
2018-01-07T14:43:29.032Z,990
2018-01-07T14:44:31.707Z,990
2018-01-07T14:45:34.325Z,990
2018-01-07T14:46:36.954Z,990
2018-01-07T14:47:39.573Z,990
2018-01-07T14:48:42.324Z,989.8
2018-01-07T14:49:45.097Z,990.1
2018-01-07T14:50:47.929Z,990
2018-01-07T14:51:51.104Z,989.8
2018-01-07T14:52:54.205Z,990.1
2018-01-07T14:53:57.118Z,989.6
2018-01-07T14:54:59.911Z,990.1
2018-01-07T14:56:02.903Z,990
2018-01-07T14:57:05.679Z,990.1
2018-01-07T14:58:08.562Z,989.9
2018-01-07T14:59:11.452Z,990
2018-01-07T15:00:14.542Z,990
2018-01-07T15:01:17.349Z,990
2018-01-07T15:02:20.119Z,990
2018-01-07T15:03:23.073Z,990
2018-01-07T15:04:25.851Z,989.8
2018-01-07T15:05:28.684Z,989.7
2018-01-07T15:06:31.640Z,989.9
2018-01-07T15:07:34.374Z,990
2018-01-07T15:08:37.093Z,990
2018-01-07T15:09:39.763Z,989.9
2018-01-07T15:10:43.137Z,989.9
2018-01-07T15:11:45.996Z,989.9
2018-01-07T15:12:48.618Z,990
2018-01-07T15:13:51.362Z,989.7
2018-01-07T15:14:54.040Z,989.9
2018-01-07T15:15:56.829Z,989.7
2018-01-07T15:16:59.538Z,990
2018-01-07T15:18:02.379Z,989.9
2018-01-07T15:19:05.166Z,990
2018-01-07T15:20:08.448Z,990
2018-01-07T15:21:11.637Z,990
2018-01-07T15:22:14.292Z,990
2018-01-07T15:23:17.026Z,990
2018-01-07T15:24:19.794Z,990
2018-01-07T15:25:22.441Z,990
2018-01-07T15:26:25.067Z,990
2018-01-07T15:27:27.867Z,990.1
2018-01-07T15:28:30.475Z,990.1
2018-01-07T15:29:33.266Z,990
2018-01-07T15:30:35.967Z,990.1
2018-01-07T15:31:38.833Z,990
2018-01-07T15:32:41.820Z,990.1
2018-01-07T15:33:44.468Z,990.1
2018-01-07T15:34:47.183Z,990.1
2018-01-07T15:35:49.878Z,990.1
2018-01-07T15:36:52.887Z,990.1
2018-01-07T15:37:55.819Z,990.2
2018-01-07T15:38:58.541Z,990.2
2018-01-07T15:40:01.685Z,990.1
2018-01-07T15:41:04.453Z,990.1
2018-01-07T15:42:07.226Z,990.2
2018-01-07T15:43:09.961Z,990.3
2018-01-07T15:44:12.880Z,990.2
2018-01-07T15:45:15.599Z,990.3
2018-01-07T15:46:18.356Z,990.3
2018-01-07T15:47:21.259Z,990.3
2018-01-07T15:48:24.025Z,990.3
2018-01-07T15:49:26.675Z,990
2018-01-07T15:50:29.395Z,990.2
2018-01-07T15:51:32.257Z,990.3
2018-01-07T15:52:35.105Z,990.3
2018-01-07T15:53:37.996Z,990.3
2018-01-07T15:54:40.779Z,990.3
2018-01-07T15:55:43.606Z,990.1
2018-01-07T15:56:48.559Z,990.3
2018-01-07T15:57:51.170Z,990.3
2018-01-07T15:58:53.944Z,990
2018-01-07T15:59:56.652Z,990.3
2018-01-07T16:00:59.343Z,990.3
2018-01-07T16:02:02.539Z,990
2018-01-07T16:03:05.266Z,990.3
2018-01-07T16:04:08.010Z,990.3
2018-01-07T16:05:10.665Z,990
2018-01-07T16:06:13.410Z,990.3
2018-01-07T16:07:16.063Z,990.3
2018-01-07T16:08:18.811Z,990.1
2018-01-07T16:09:22.057Z,990.4
2018-01-07T16:10:24.854Z,990.3
2018-01-07T16:11:27.901Z,990.2
2018-01-07T16:12:30.738Z,990.3
2018-01-07T16:13:36.092Z,990.3
2018-01-07T16:14:38.859Z,990.3
2018-01-07T16:15:41.442Z,990.4
2018-01-07T16:16:49.943Z,990.4
2018-01-07T16:17:52.645Z,990.3
2018-01-07T16:18:55.218Z,990.4
2018-01-07T16:19:58.067Z,990.4
2018-01-07T16:21:00.819Z,990.4
2018-01-07T16:22:09.691Z,990.3
2018-01-07T16:23:12.545Z,990.4
2018-01-07T16:24:15.544Z,990.4
2018-01-07T16:25:18.262Z,990.4
2018-01-07T16:26:25.194Z,990.4
2018-01-07T16:27:27.937Z,990.4
2018-01-07T16:28:30.800Z,990.4
2018-01-07T16:29:33.621Z,990.4
2018-01-07T16:30:37.928Z,990.4
2018-01-07T16:31:40.601Z,990.4
2018-01-07T16:32:43.274Z,990.4
2018-01-07T16:33:45.996Z,990.3
2018-01-07T16:34:48.813Z,990.4
2018-01-07T16:35:51.789Z,990.2
2018-01-07T16:36:54.513Z,990.5
2018-01-07T16:37:57.240Z,990.5
2018-01-07T16:38:59.950Z,990.5
2018-01-07T16:40:04.006Z,990.5
2018-01-07T16:41:06.773Z,990.5
2018-01-07T16:42:09.551Z,990.5
2018-01-07T16:43:12.264Z,990.5
2018-01-07T16:44:15.458Z,990.2
2018-01-07T16:45:18.125Z,990.5
2018-01-07T16:46:20.947Z,990.5
2018-01-07T16:47:23.885Z,990.5
2018-01-07T16:48:26.649Z,990.5
2018-01-07T16:49:29.440Z,990.5
2018-01-07T16:50:32.645Z,990.5
2018-01-07T16:51:43.588Z,990.3
2018-01-07T16:52:46.439Z,990.6
2018-01-07T16:53:49.198Z,990.6
2018-01-07T16:54:52.219Z,990.5
2018-01-07T16:55:54.889Z,990.5
2018-01-07T16:56:57.784Z,990.5
2018-01-07T16:58:00.619Z,990.5
2018-01-07T16:59:03.735Z,990.5
2018-01-07T17:00:06.674Z,990.4
2018-01-07T17:01:09.414Z,990.6
2018-01-07T17:02:12.628Z,990.6
2018-01-07T17:03:15.285Z,990.5
2018-01-07T17:04:18.082Z,990.6
2018-01-07T17:05:20.766Z,990.4
2018-01-07T17:06:23.736Z,990.5
2018-01-07T17:07:26.557Z,990.6
2018-01-07T17:08:29.224Z,990.4
2018-01-07T17:09:32.336Z,990.6
2018-01-07T17:10:34.973Z,990.6
2018-01-07T17:11:38.799Z,990.6
2018-01-07T17:12:42.034Z,990.6
2018-01-07T17:13:44.676Z,990.7
2018-01-07T17:14:47.879Z,990.7
2018-01-07T17:15:50.672Z,990.7
2018-01-07T17:16:53.622Z,990.7
2018-01-07T17:17:56.444Z,990.8
2018-01-07T17:18:59.642Z,990.8
2018-01-07T17:20:02.688Z,990.8
2018-01-07T17:21:05.897Z,990.8
2018-01-07T17:22:09.584Z,990.8
2018-01-07T17:23:12.456Z,990.8
2018-01-07T17:24:15.256Z,990.8
2018-01-07T17:25:18.145Z,990.9
2018-01-07T17:26:29.855Z,990.9
2018-01-07T17:27:32.450Z,990.9
2018-01-07T17:28:35.194Z,990.9
2018-01-07T17:29:38.152Z,990.9
2018-01-07T17:30:40.808Z,990.9
2018-01-07T17:31:43.694Z,990.9
2018-01-07T17:32:46.446Z,990.9
2018-01-07T17:33:49.143Z,990.9
2018-01-07T17:34:51.953Z,990.9
2018-01-07T17:35:54.648Z,990.9
2018-01-07T17:36:57.391Z,990.7
2018-01-07T17:38:00.483Z,990.9
2018-01-07T17:39:03.231Z,990.8
2018-01-07T17:40:11.701Z,990.9
2018-01-07T17:41:14.553Z,990.9
2018-01-07T17:42:17.212Z,990.9
2018-01-07T17:43:20.107Z,991
2018-01-07T17:44:22.787Z,991
2018-01-07T17:45:25.598Z,991
2018-01-07T17:46:28.310Z,991
2018-01-07T17:47:31.211Z,991
2018-01-07T17:48:33.974Z,991
2018-01-07T17:49:36.770Z,991.1
2018-01-07T17:50:39.377Z,991
2018-01-07T17:51:42.149Z,991
2018-01-07T17:52:45.109Z,990.8
2018-01-07T17:53:48.008Z,991
2018-01-07T17:54:50.947Z,991
2018-01-07T17:55:53.761Z,991
2018-01-07T17:56:56.571Z,991
2018-01-07T17:57:59.337Z,991
2018-01-07T17:59:09.668Z,991
2018-01-07T18:00:12.302Z,991
2018-01-07T18:01:15.299Z,991.1
2018-01-07T18:02:18.284Z,991.1
2018-01-07T18:03:21.077Z,991.1
2018-01-07T18:04:23.681Z,991.1
2018-01-07T18:05:26.373Z,991.1
2018-01-07T18:06:29.143Z,991.1
2018-01-07T18:07:37.194Z,991.1
2018-01-07T18:08:39.794Z,991.1
2018-01-07T18:09:42.534Z,991.2
2018-01-07T18:10:45.254Z,991.2
2018-01-07T18:11:48.048Z,991.2
2018-01-07T18:12:50.760Z,991.3
2018-01-07T18:13:53.287Z,991.3
2018-01-07T18:14:56.007Z,991.3
2018-01-07T18:15:58.568Z,991.4
2018-01-07T18:17:01.491Z,991.3
2018-01-07T18:18:04.271Z,991.4
2018-01-07T18:19:07.345Z,991.3
2018-01-07T18:20:15.882Z,991.3
2018-01-07T18:21:18.587Z,991.3
2018-01-07T18:22:21.959Z,991.3
2018-01-07T18:23:30.603Z,991.1
2018-01-07T18:24:33.355Z,991.3
2018-01-07T18:25:36.261Z,991.1
2018-01-07T18:26:38.915Z,991.3
2018-01-07T18:27:41.795Z,991.4
2018-01-07T18:28:44.475Z,991.3
2018-01-07T18:29:47.495Z,991.4
2018-01-07T18:30:50.480Z,991.4
2018-01-07T18:31:53.156Z,991.4
2018-01-07T18:32:56.061Z,991.4
2018-01-07T18:33:58.988Z,991.4
2018-01-07T18:35:01.886Z,991.3
2018-01-07T18:36:04.994Z,991.4
2018-01-07T18:37:07.785Z,990.9
2018-01-07T18:38:10.536Z,991.4
2018-01-07T18:39:13.415Z,991.5
2018-01-07T18:40:16.141Z,991.3
2018-01-07T18:41:22.576Z,991.4
2018-01-07T18:42:25.230Z,991.4
2018-01-07T18:43:28.052Z,991.4
2018-01-07T18:44:30.826Z,991.4
2018-01-07T18:45:33.723Z,991.4
2018-01-07T18:46:36.554Z,991.3
2018-01-07T18:47:39.245Z,991.4
2018-01-07T18:48:41.937Z,991.4
2018-01-07T18:49:45.252Z,991.4
2018-01-07T18:50:47.990Z,991.3
2018-01-07T18:51:50.847Z,991.3
2018-01-07T18:52:53.685Z,991.3
2018-01-07T18:53:56.554Z,991.3
2018-01-07T18:54:59.254Z,991.3
2018-01-07T18:56:02.220Z,991.4
2018-01-07T18:57:05.400Z,991.3
2018-01-07T18:58:08.395Z,991.4
2018-01-07T18:59:11.303Z,991.4
2018-01-07T19:00:14.182Z,991.2
2018-01-07T19:01:16.993Z,991.4
2018-01-07T19:02:19.708Z,991.4
2018-01-07T19:03:22.421Z,991.3
2018-01-07T19:04:27.929Z,991.1
2018-01-07T19:05:30.730Z,991.3
2018-01-07T19:06:33.453Z,991.2
2018-01-07T19:07:36.397Z,991.3
2018-01-07T19:08:39.122Z,991.4
2018-01-07T19:09:41.868Z,991.3
2018-01-07T19:10:45.145Z,990.9
2018-01-07T19:11:47.967Z,991.3
2018-01-07T19:12:50.810Z,991.3
2018-01-07T19:13:53.954Z,990.9
2018-01-07T19:14:56.848Z,991.2
2018-01-07T19:15:59.636Z,991.4
2018-01-07T19:17:02.467Z,991.3
2018-01-07T19:18:05.710Z,991.3
2018-01-07T19:19:08.605Z,991.4
2018-01-07T19:20:12.540Z,991.4
2018-01-07T19:21:15.317Z,991.4
2018-01-07T19:22:18.470Z,991.3
2018-01-07T19:23:22.184Z,991.4
2018-01-07T19:24:27.723Z,991.4
2018-01-07T19:25:30.538Z,991.2
2018-01-07T19:26:33.330Z,991.4
2018-01-07T19:27:41.508Z,991.3
2018-01-07T19:28:44.480Z,991.3
2018-01-07T19:29:47.168Z,991.4
2018-01-07T19:30:50.090Z,991.4
2018-01-07T19:31:53.028Z,991.3
2018-01-07T19:32:55.775Z,991.4
2018-01-07T19:33:58.930Z,991.4
2018-01-07T19:35:02.176Z,991.4
2018-01-07T19:36:04.890Z,991.3